Time;durP1;ratioP1;P1;durP2;ratioP2;P2;SDS_P1;SDS_P2;PMS_P1;PMS_P2;Temp;Humidity;BMP_temperature;BMP_pressure;BME280_temperature;BME280_humidity;BME280_pressure;Samples;Min_cycle;Max_cycle;Signal;HPM_P1;HPM_P2
2021/07/02 00:01:39;;;;;;;13.07;7.37;;;13.40;99.90;;;;;;20872090;28;20043;-82
2021/07/02 00:11:40;;;;;;;14.65;6.43;;;13.40;99.90;;;;;;20892718;28;20047;-84
2021/07/02 00:21:41;;;;;;;16.40;7.23;;;13.10;99.90;;;;;;20902050;28;20132;-83
2021/07/02 00:31:42;;;;;;;14.80;7.60;;;13.00;99.90;;;;;;20898949;28;20048;-82
2021/07/02 00:41:43;;;;;;;15.23;7.37;;;12.80;99.90;;;;;;20903876;28;20025;-82
2021/07/02 00:51:44;;;;;;;12.80;7.67;;;12.70;99.90;;;;;;21043614;22;20048;-79
2021/07/02 01:01:45;;;;;;;15.37;7.40;;;12.60;99.90;;;;;;21066291;28;20593;-79
2021/07/02 01:11:46;;;;;;;13.17;7.33;;;12.50;99.90;;;;;;21064666;28;20040;-79
2021/07/02 01:21:47;;;;;;;14.20;8.40;;;12.30;99.90;;;;;;21063095;28;20575;-77
2021/07/02 01:31:51;;;;;;;14.45;7.65;;;12.20;99.90;;;;;;21049338;28;20039;-79
2021/07/02 01:41:52;;;;;;;17.77;8.27;;;12.30;99.90;;;;;;21066175;28;20032;-79
2021/07/02 01:51:54;;;;;;;15.57;7.78;;;12.00;99.90;;;;;;21048833;28;20059;-78
2021/07/02 02:01:56;;;;;;;14.30;8.00;;;11.90;99.90;;;;;;21061758;28;20085;-77
2021/07/02 02:12:00;;;;;;;17.00;8.05;;;11.90;99.90;;;;;;21073300;28;20117;-77
2021/07/02 02:22:09;;;;;;;16.00;7.88;;;11.60;99.90;;;;;;21061023;28;20036;-78
2021/07/02 02:32:16;;;;;;;21.52;8.65;;;11.50;99.90;;;;;;21052313;28;20025;-78
2021/07/02 02:42:17;;;;;;;;;;;11.40;99.90;;;;;;21058665;28;20028;-78
2021/07/02 02:52:20;;;;;;;16.07;8.17;;;11.40;99.90;;;;;;21014868;28;19970;-79
2021/07/02 03:02:21;;;;;;;15.63;8.40;;;11.20;99.90;;;;;;21000561;28;20037;-79
2021/07/02 03:12:24;;;;;;;19.25;8.98;;;11.20;99.90;;;;;;20981541;28;20037;-78
2021/07/02 03:22:26;;;;;;;19.40;8.98;;;11.00;99.90;;;;;;20974343;28;20032;-77
2021/07/02 03:32:28;;;;;;;20.38;8.05;;;10.80;99.90;;;;;;20976021;28;20037;-78
2021/07/02 03:42:29;;;;;;;13.02;7.72;;;10.90;99.90;;;;;;20976060;28;20035;-78
2021/07/02 03:52:31;;;;;;;18.60;8.88;;;11.00;99.90;;;;;;20990169;28;20036;-77
2021/07/02 04:02:32;;;;;;;18.47;9.73;;;10.90;99.90;;;;;;21024037;28;20028;-79
2021/07/02 04:12:33;;;;;;;16.00;8.83;;;11.00;99.90;;;;;;21024848;28;20493;-80
2021/07/02 04:22:35;;;;;;;15.23;8.47;;;10.90;99.90;;;;;;21001424;28;20082;-80
2021/07/02 04:32:36;;;;;;;38.42;12.88;;;11.00;99.90;;;;;;21021963;28;20068;-78
2021/07/02 04:42:39;;;;;;;50.47;16.10;;;11.50;99.90;;;;;;21015041;28;20555;-79
2021/07/02 04:52:40;;;;;;;43.65;14.15;;;11.80;99.90;;;;;;21011222;28;20033;-78
2021/07/02 05:02:40;;;;;;;65.07;17.73;;;12.10;99.90;;;;;;20991135;28;20032;-79
2021/07/02 05:12:41;;;;;;;42.97;16.70;;;12.40;99.90;;;;;;20975551;28;20040;-78
2021/07/02 05:22:42;;;;;;;86.47;22.50;;;12.40;99.90;;;;;;20988834;28;20032;-79
2021/07/02 05:32:43;;;;;;;104.50;22.97;;;12.40;99.90;;;;;;20988330;28;20123;-77
2021/07/02 05:42:44;;;;;;;118.13;19.33;;;12.30;99.90;;;;;;20995809;28;20516;-78
2021/07/02 05:52:46;;;;;;;64.70;18.63;;;12.70;99.90;;;;;;21025367;28;20184;-77
2021/07/02 06:02:47;;;;;;;39.22;18.73;;;13.00;99.90;;;;;;21070595;28;20035;-79
2021/07/02 06:12:49;;;;;;;42.83;20.20;;;13.20;99.90;;;;;;21062810;28;20024;-79
2021/07/02 06:22:50;;;;;;;42.03;20.23;;;13.40;99.90;;;;;;21130210;28;20024;-78
2021/07/02 06:32:51;;;;;;;35.60;18.73;;;14.10;99.90;;;;;;21132681;28;20031;-78
2021/07/02 06:42:52;;;;;;;27.43;15.87;;;14.60;99.90;;;;;;21137895;28;20032;-79
2021/07/02 06:52:53;;;;;;;23.97;11.80;;;15.30;99.90;;;;;;20872416;22;20053;-81
2021/07/02 07:02:55;;;;;;;21.47;8.97;;;16.10;99.90;;;;;;20827900;28;20029;-79
2021/07/02 07:13:00;;;;;;;16.05;8.52;;;16.70;99.90;;;;;;20826094;28;20279;-80
2021/07/02 07:23:02;;;;;;;12.73;7.47;;;17.00;99.90;;;;;;20834187;28;20041;-81
2021/07/02 07:33:03;;;;;;;12.68;6.70;;;17.30;99.90;;;;;;20842823;28;20129;-82
2021/07/02 07:43:04;;;;;;;11.10;5.53;;;18.00;99.90;;;;;;20841091;28;20026;-82
2021/07/02 07:53:05;;;;;;;9.03;5.00;;;18.60;99.90;;;;;;20843424;28;20512;-81
2021/07/02 08:03:06;;;;;;;8.07;4.13;;;19.00;99.90;;;;;;20823430;28;20084;-81
2021/07/02 08:13:07;;;;;;;7.77;4.60;;;19.30;99.90;;;;;;20821333;28;20064;-80
2021/07/02 08:23:09;;;;;;;7.07;4.80;;;19.60;99.90;;;;;;20836760;28;20037;-82
2021/07/02 08:33:16;;;;;;;11.55;5.47;;;20.10;99.90;;;;;;20837001;28;20071;-83
2021/07/02 08:43:17;;;;;;;7.70;4.82;;;20.30;99.90;;;;;;20836093;28;20095;-82
2021/07/02 08:53:18;;;;;;;8.83;4.73;;;20.70;99.90;;;;;;20835712;28;20037;-81
2021/07/02 09:03:28;;;;;;;6.37;4.23;;;21.20;99.90;;;;;;20835212;28;20083;-82
2021/07/02 09:13:42;;;;;;;8.30;4.82;;;20.70;99.90;;;;;;20834901;28;20032;-83
2021/07/02 09:23:43;;;;;;;6.63;4.38;;;20.80;99.90;;;;;;20831364;28;20486;-82
2021/07/02 09:33:44;;;;;;;6.27;4.37;;;21.10;99.90;;;;;;20830051;28;20478;-82
2021/07/02 09:43:45;;;;;;;8.23;4.30;;;21.50;99.90;;;;;;20827955;28;20039;-81
2021/07/02 09:53:46;;;;;;;6.03;4.30;;;21.80;99.90;;;;;;20850171;28;20513;-82
2021/07/02 10:03:47;;;;;;;7.53;5.10;;;22.40;99.90;;;;;;20829005;28;20116;-85
2021/07/02 10:13:49;;;;;;;9.33;5.13;;;22.40;99.90;;;;;;20828576;28;20372;-81
2021/07/02 10:23:53;;;;;;;6.68;4.60;;;23.30;99.90;;;;;;20832717;28;20029;-82
2021/07/02 10:33:58;;;;;;;8.60;4.90;;;24.40;99.90;;;;;;20831244;28;20033;-82
2021/07/02 10:44:18;;;;;;;7.38;4.40;;;23.00;99.90;;;;;;20827867;28;20324;-82
2021/07/02 10:54:20;;;;;;;7.07;4.18;;;23.10;99.90;;;;;;20824826;28;20494;-81
2021/07/02 11:04:34;;;;;;;8.73;5.03;;;22.40;99.90;;;;;;20826970;28;20033;-81
2021/07/02 11:14:55;;;;;;;5.95;3.65;;;23.30;99.90;;;;;;20842111;28;20042;-81
2021/07/02 11:25:01;;;;;;;4.25;2.85;;;23.60;99.90;;;;;;20826025;28;20390;-82
2021/07/02 11:35:20;;;;;;;6.13;3.60;;;24.20;99.90;;;;;;20826674;28;20468;-81
2021/07/02 11:45:41;;;;;;;6.03;3.70;;;23.70;99.90;;;;;;20786570;28;1244731;-83
2021/07/02 11:55:42;;;;;;;6.38;3.22;;;23.40;99.90;;;;;;20802180;28;20041;-83
2021/07/02 12:05:56;;;;;;;5.17;3.10;;;24.70;99.90;;;;;;20824527;28;20039;-83
2021/07/02 12:16:06;;;;;;;3.80;2.85;;;24.10;99.90;;;;;;20840937;28;20037;-82
2021/07/02 12:26:19;;;;;;;3.83;2.85;;;23.60;99.90;;;;;;20822987;28;20140;-83
2021/07/02 12:36:20;;;;;;;4.25;2.97;;;23.30;99.90;;;;;;20844911;28;20040;-81
2021/07/02 12:46:21;;;;;;;7.63;3.00;;;23.50;99.90;;;;;;20844945;23;20495;-80
2021/07/02 12:56:22;;;;;;;3.57;2.70;;;24.00;99.90;;;;;;21075736;28;20040;-79
2021/07/02 13:06:23;;;;;;;7.70;2.60;;;24.10;99.90;;;;;;21072823;28;20040;-79
2021/07/02 13:16:24;;;;;;;5.07;3.13;;;23.90;99.90;;;;;;21053980;28;20336;-76
2021/07/02 13:26:33;;;;;;;5.78;3.17;;;24.20;99.90;;;;;;21055872;28;20024;-78
2021/07/02 13:36:37;;;;;;;4.53;3.22;;;24.20;99.90;;;;;;20992694;28;20036;-78
2021/07/02 13:46:38;;;;;;;4.00;2.65;;;25.00;99.90;;;;;;20988141;28;20047;-78
2021/07/02 13:56:39;;;;;;;3.97;3.05;;;24.70;99.90;;;;;;20966877;28;20055;-78
2021/07/02 14:06:40;;;;;;;4.90;3.17;;;24.50;99.90;;;;;;21013985;28;20070;-78
2021/07/02 14:16:41;;;;;;;5.30;2.78;;;25.30;99.90;;;;;;21033776;28;20400;-79
2021/07/02 14:26:42;;;;;;;4.80;2.50;;;25.20;99.90;;;;;;21050683;28;20044;-78
2021/07/02 14:36:43;;;;;;;3.65;2.85;;;25.50;99.90;;;;;;21069696;28;20032;-78
2021/07/02 14:46:44;;;;;;;3.67;2.58;;;25.90;99.90;;;;;;21052999;28;20040;-77
2021/07/02 14:56:49;;;;;;;4.30;2.90;;;24.90;99.90;;;;;;21071057;28;20111;-79
2021/07/02 15:06:50;;;;;;;3.67;2.50;;;25.30;99.90;;;;;;21049251;28;20032;-81
2021/07/02 15:16:51;;;;;;;3.27;2.43;;;25.30;99.90;;;;;;21043918;28;20127;-80
2021/07/02 15:26:51;;;;;;;5.07;3.03;;;25.10;99.90;;;;;;21041178;28;20313;-78
2021/07/02 15:36:55;;;;;;;3.27;2.60;;;24.90;99.90;;;;;;21039725;28;20487;-78
2021/07/02 15:46:56;;;;;;;6.68;3.00;;;25.10;99.90;;;;;;21072959;28;20396;-79
2021/07/02 15:56:57;;;;;;;4.40;3.20;;;24.80;99.90;;;;;;21072490;28;20028;-78
2021/07/02 16:06:57;;;;;;;3.50;2.63;;;24.10;99.90;;;;;;21043074;28;20107;-80
2021/07/02 16:16:58;;;;;;;5.17;3.47;;;23.80;99.90;;;;;;20993859;28;20523;-80
2021/07/02 16:26:59;;;;;;;4.63;3.23;;;24.20;99.90;;;;;;21059219;28;20036;-78
2021/07/02 16:37:00;;;;;;;6.30;3.42;;;24.00;99.90;;;;;;21058520;28;20048;-77
2021/07/02 16:47:02;;;;;;;5.90;3.37;;;24.00;99.90;;;;;;21077564;28;20100;-81
2021/07/02 16:57:03;;;;;;;5.80;3.30;;;23.90;99.90;;;;;;21077158;28;20024;-80
2021/07/02 17:07:05;;;;;;;5.63;3.25;;;24.10;99.90;;;;;;21068412;28;20068;-78
2021/07/02 17:17:07;;;;;;;4.32;3.47;;;23.90;99.90;;;;;;21036441;28;20024;-78
2021/07/02 17:27:08;;;;;;;6.55;3.50;;;24.00;99.90;;;;;;20986550;28;20040;-77
2021/07/02 17:37:09;;;;;;;8.90;3.53;;;24.10;99.90;;;;;;21030927;28;20028;-77
2021/07/02 17:47:10;;;;;;;7.57;3.57;;;23.40;99.90;;;;;;21047498;28;20083;-79
2021/07/02 17:57:11;;;;;;;7.75;3.30;;;23.00;99.90;;;;;;21046943;28;20063;-78
2021/07/02 18:07:12;;;;;;;5.43;3.70;;;22.50;99.90;;;;;;21063242;28;20032;-77
2021/07/02 18:17:13;;;;;;;4.95;3.65;;;22.10;99.90;;;;;;21046368;28;20068;-79
2021/07/02 18:27:14;;;;;;;5.60;3.47;;;23.60;99.90;;;;;;21046185;28;20040;-77
2021/07/02 18:37:15;;;;;;;;;;;25.60;99.90;;;;;;21063258;28;20032;-79
2021/07/02 18:47:16;;;;;;;5.00;3.78;;;26.10;99.90;;;;;;21025416;28;20446;-77
2021/07/02 18:57:17;;;;;;;5.68;3.63;;;22.70;99.90;;;;;;21042105;28;20032;-78
2021/07/02 19:07:18;;;;;;;6.63;4.20;;;21.20;99.90;;;;;;21027127;28;20063;-77
2021/07/02 19:17:19;;;;;;;7.70;4.57;;;20.10;99.90;;;;;;20991570;28;20028;-76
2021/07/02 19:27:20;;;;;;;8.37;5.03;;;19.50;99.90;;;;;;21041254;28;20032;-78
2021/07/02 19:37:21;;;;;;;7.93;5.23;;;18.80;99.90;;;;;;21039345;28;20503;-77
2021/07/02 19:47:22;;;;;;;13.87;5.07;;;18.40;99.90;;;;;;21060921;28;20060;-78
2021/07/02 19:57:23;;;;;;;5.43;3.97;;;17.60;99.90;;;;;;21064554;28;20024;-78
2021/07/02 20:07:24;;;;;;;10.03;4.80;;;17.80;99.90;;;;;;21062822;28;20032;-76
2021/07/02 20:17:25;;;;;;;9.87;5.43;;;17.40;99.90;;;;;;21045917;28;20393;-77
2021/07/02 20:27:26;;;;;;;7.53;5.10;;;16.70;99.90;;;;;;21051003;28;20036;-76
2021/07/02 20:37:27;;;;;;;8.13;4.83;;;16.50;99.90;;;;;;21062502;28;20028;-76
2021/07/02 20:47:28;;;;;;;14.30;5.33;;;16.30;99.90;;;;;;21064452;28;20385;-78
2021/07/02 20:57:29;;;;;;;6.87;4.07;;;16.40;99.90;;;;;;21079499;28;20065;-79
2021/07/02 21:07:30;;;;;;;10.43;4.77;;;16.50;99.90;;;;;;21042253;28;20115;-78
2021/07/02 21:17:31;;;;;;;9.77;5.50;;;16.30;99.90;;;;;;21038100;28;20074;-77
2021/07/02 21:27:33;;;;;;;6.95;4.78;;;15.10;99.90;;;;;;21001228;28;20032;-76
2021/07/02 21:37:34;;;;;;;9.83;5.70;;;15.70;99.90;;;;;;20989905;28;20036;-76
2021/07/02 21:47:34;;;;;;;6.20;4.80;;;15.50;99.90;;;;;;20992316;28;20032;-77
2021/07/02 21:57:35;;;;;;;9.53;5.67;;;15.50;99.90;;;;;;20993118;28;20035;-77
2021/07/02 22:07:36;;;;;;;12.33;5.57;;;15.00;99.90;;;;;;21012948;28;20047;-76
2021/07/02 22:17:37;;;;;;;9.17;6.10;;;14.70;99.90;;;;;;21057429;28;20128;-77
2021/07/02 22:27:39;;;;;;;8.57;5.20;;;14.30;99.90;;;;;;21075668;28;20039;-77
2021/07/02 22:37:40;;;;;;;8.10;4.80;;;14.40;99.90;;;;;;21051314;28;20138;-78
2021/07/02 22:47:41;;;;;;;9.90;5.13;;;14.90;99.90;;;;;;21073494;28;20036;-77
2021/07/02 22:57:42;;;;;;;8.27;5.10;;;15.20;99.90;;;;;;21054171;28;20042;-77
2021/07/02 23:07:43;;;;;;;7.93;5.07;;;15.10;99.90;;;;;;21054566;28;20042;-79
2021/07/02 23:17:44;;;;;;;7.90;5.13;;;15.20;99.90;;;;;;21081802;28;20481;-77
2021/07/02 23:27:45;;;;;;;11.27;5.00;;;15.20;99.90;;;;;;21000764;28;20485;-79
2021/07/02 23:37:46;;;;;;;8.17;4.40;;;15.20;99.90;;;;;;20995353;28;20084;-78
2021/07/02 23:47:47;;;;;;;8.57;4.50;;;15.30;99.90;;;;;;20977817;28;20043;-79
2021/07/02 23:57:48;;;;;;;7.73;4.83;;;15.10;99.90;;;;;;20997290;28;20032;-78
